createdAt,value
2018-05-29T00:00:38.985Z,20.75
2018-05-29T00:01:38.877Z,20.74
2018-05-29T00:02:38.692Z,20.74
2018-05-29T00:03:38.784Z,20.75
2018-05-29T00:04:38.948Z,20.75
2018-05-29T00:05:38.989Z,20.75
2018-05-29T00:06:38.827Z,20.75
2018-05-29T00:07:38.812Z,20.72
2018-05-29T00:08:40.471Z,20.71
2018-05-29T00:09:38.940Z,20.72
2018-05-29T00:10:39.007Z,20.72
2018-05-29T00:11:38.737Z,20.72
2018-05-29T00:12:39.116Z,20.71
2018-05-29T00:13:38.894Z,20.74
2018-05-29T00:14:39.152Z,20.72
2018-05-29T00:15:39.121Z,20.74
2018-05-29T00:16:38.925Z,20.72
2018-05-29T00:17:38.786Z,20.71
2018-05-29T00:18:39.043Z,20.72
2018-05-29T00:19:39.029Z,20.71
2018-05-29T00:20:38.859Z,20.71
2018-05-29T00:21:38.770Z,20.74
2018-05-29T00:22:38.955Z,20.74
2018-05-29T00:23:38.973Z,20.72
2018-05-29T00:24:38.989Z,20.72
2018-05-29T00:25:38.854Z,20.74
2018-05-29T00:26:38.807Z,20.71
2018-05-29T00:27:38.705Z,20.72
2018-05-29T00:28:38.951Z,20.7
2018-05-29T00:29:39.016Z,20.71
2018-05-29T00:30:39.025Z,20.72
2018-05-29T00:31:38.847Z,20.74
2018-05-29T00:32:38.804Z,20.72
2018-05-29T00:33:38.967Z,20.71
2018-05-29T00:34:39.014Z,20.71
2018-05-29T00:35:39.147Z,20.7
2018-05-29T00:36:39.003Z,20.72
2018-05-29T00:37:39.061Z,20.7
2018-05-29T00:38:39.088Z,20.71
2018-05-29T00:39:38.804Z,20.71
2018-05-29T00:40:38.844Z,20.72
2018-05-29T00:41:38.745Z,20.71
2018-05-29T00:42:39.099Z,20.71
2018-05-29T00:43:39.001Z,20.71
2018-05-29T00:44:38.871Z,20.71
2018-05-29T00:45:39.186Z,20.72
2018-05-29T00:46:38.992Z,20.74
2018-05-29T00:47:38.803Z,20.74
2018-05-29T00:48:39.052Z,20.71
2018-05-29T00:49:39.088Z,20.74
2018-05-29T00:50:39.028Z,20.7
2018-05-29T00:51:39.277Z,20.71
2018-05-29T00:52:39.112Z,20.71
2018-05-29T00:53:38.897Z,20.71
2018-05-29T00:54:39.004Z,20.72
2018-05-29T00:55:39.679Z,20.7
2018-05-29T00:56:38.949Z,20.7
2018-05-29T00:57:39.434Z,20.72
2018-05-29T00:58:41.525Z,20.71
2018-05-29T00:59:38.890Z,20.72
2018-05-29T01:00:38.962Z,20.71
2018-05-29T01:01:38.985Z,20.71
2018-05-29T01:02:38.770Z,20.71
2018-05-29T01:03:38.808Z,20.72
2018-05-29T01:04:38.786Z,20.68
2018-05-29T01:05:38.973Z,20.71
2018-05-29T01:06:38.946Z,20.71
2018-05-29T01:07:38.942Z,20.7
2018-05-29T01:08:39.085Z,20.72
2018-05-29T01:09:38.888Z,20.72
2018-05-29T01:10:38.836Z,20.72
2018-05-29T01:11:38.948Z,20.7
2018-05-29T01:12:39.258Z,20.7
2018-05-29T01:13:39.029Z,20.72
2018-05-29T01:14:38.887Z,20.71
2018-05-29T01:15:38.876Z,20.71
2018-05-29T01:16:38.893Z,20.72
2018-05-29T01:17:38.795Z,20.72
2018-05-29T01:18:39.037Z,20.71
2018-05-29T01:19:38.926Z,20.7
2018-05-29T01:20:38.855Z,20.71
2018-05-29T01:21:38.857Z,20.7
2018-05-29T01:22:38.874Z,20.71
2018-05-29T01:23:39.090Z,20.72
2018-05-29T01:24:38.886Z,20.71
2018-05-29T01:25:38.905Z,20.71
2018-05-29T01:26:39.006Z,20.72
2018-05-29T01:27:39.056Z,20.71
2018-05-29T01:28:39.070Z,20.71
2018-05-29T01:29:38.998Z,20.7
2018-05-29T01:30:39.042Z,20.68
2018-05-29T01:31:38.774Z,20.7
2018-05-29T01:32:38.855Z,20.71
2018-05-29T01:33:38.542Z,20.7
2018-05-29T01:34:38.864Z,20.71
2018-05-29T01:35:38.934Z,20.72
2018-05-29T01:36:38.763Z,20.7
2018-05-29T01:37:38.784Z,20.7
2018-05-29T01:38:38.835Z,20.68
2018-05-29T01:39:38.844Z,20.71
2018-05-29T01:40:38.805Z,20.68
2018-05-29T01:41:39.159Z,20.72
2018-05-29T01:42:38.928Z,20.71
2018-05-29T01:43:39.024Z,20.71
2018-05-29T01:44:38.874Z,20.71
2018-05-29T01:45:39.003Z,20.7
2018-05-29T01:46:38.774Z,20.7
2018-05-29T01:47:38.830Z,20.71
2018-05-29T01:48:39.079Z,20.7
2018-05-29T01:49:38.867Z,20.71
2018-05-29T01:50:39.099Z,20.72
2018-05-29T01:51:38.937Z,20.7
2018-05-29T01:52:38.887Z,20.68
2018-05-29T01:53:38.937Z,20.7
2018-05-29T01:54:38.674Z,20.72
2018-05-29T01:55:38.854Z,20.71
2018-05-29T01:56:38.765Z,20.68
2018-05-29T01:57:38.969Z,20.71
2018-05-29T01:58:38.633Z,20.7
2018-05-29T01:59:38.779Z,20.7
2018-05-29T02:00:38.736Z,20.71
2018-05-29T02:01:38.953Z,20.7
2018-05-29T02:02:38.721Z,20.68
2018-05-29T02:03:39.179Z,20.7
2018-05-29T02:04:39.491Z,20.67
2018-05-29T02:05:38.935Z,20.71
2018-05-29T02:06:39.091Z,20.68
2018-05-29T02:07:38.830Z,20.7
2018-05-29T02:08:38.993Z,20.71
2018-05-29T02:09:38.993Z,20.68
2018-05-29T02:10:38.669Z,20.71
2018-05-29T02:11:38.843Z,20.7
2018-05-29T02:12:38.748Z,20.7
2018-05-29T02:13:38.880Z,20.68
2018-05-29T02:14:38.935Z,20.7
2018-05-29T02:15:38.838Z,20.7
2018-05-29T02:16:38.777Z,20.7
2018-05-29T02:17:38.948Z,20.67
2018-05-29T02:18:38.885Z,20.67
2018-05-29T02:19:38.689Z,20.67
2018-05-29T02:20:38.665Z,20.67
2018-05-29T02:21:38.885Z,20.72
2018-05-29T02:22:38.755Z,20.68
2018-05-29T02:23:38.568Z,20.67
2018-05-29T02:24:38.748Z,20.67
2018-05-29T02:25:38.833Z,20.68
2018-05-29T02:26:39.456Z,20.67
2018-05-29T02:27:38.703Z,20.7
2018-05-29T02:28:38.831Z,20.68
2018-05-29T02:29:38.806Z,20.68
2018-05-29T02:30:38.815Z,20.68
2018-05-29T02:31:38.917Z,20.7
2018-05-29T02:32:38.772Z,20.68
2018-05-29T02:33:38.791Z,20.67
2018-05-29T02:34:38.931Z,20.68
2018-05-29T02:35:38.865Z,20.67
2018-05-29T02:36:38.818Z,20.67
2018-05-29T02:37:38.937Z,20.68
2018-05-29T02:38:38.695Z,20.66
2018-05-29T02:39:39.006Z,20.67
2018-05-29T02:40:38.815Z,20.67
2018-05-29T02:41:38.738Z,20.66
2018-05-29T02:42:38.929Z,20.7
2018-05-29T02:43:38.838Z,20.7
2018-05-29T02:44:38.861Z,20.67
2018-05-29T02:45:38.790Z,20.68
2018-05-29T02:46:38.751Z,20.7
2018-05-29T02:47:38.809Z,20.7
2018-05-29T02:48:38.857Z,20.67
2018-05-29T02:49:38.721Z,20.67
2018-05-29T02:50:38.862Z,20.67
2018-05-29T02:51:38.693Z,20.68
2018-05-29T02:52:38.739Z,20.68
2018-05-29T02:53:38.810Z,20.68
2018-05-29T02:54:38.890Z,20.67
2018-05-29T02:55:39.051Z,20.67
2018-05-29T02:56:38.852Z,20.64
2018-05-29T02:57:38.811Z,20.67
2018-05-29T02:58:39.199Z,20.64
2018-05-29T02:59:38.986Z,20.68
2018-05-29T03:00:39.475Z,20.71
2018-05-29T03:01:38.811Z,20.68
2018-05-29T03:02:38.967Z,20.68
2018-05-29T03:03:38.841Z,20.66
2018-05-29T03:04:38.883Z,20.67
2018-05-29T03:05:39.064Z,20.66
2018-05-29T03:06:38.888Z,20.68
2018-05-29T03:07:39.716Z,20.67
2018-05-29T03:08:40.787Z,20.67
2018-05-29T03:09:38.929Z,20.68
2018-05-29T03:10:38.906Z,20.66
2018-05-29T03:11:38.764Z,20.66
2018-05-29T03:12:38.841Z,20.66
2018-05-29T03:13:38.833Z,20.67
2018-05-29T03:14:39.000Z,20.66
2018-05-29T03:15:38.775Z,20.67
2018-05-29T03:16:38.864Z,20.67
2018-05-29T03:17:39.034Z,20.68
2018-05-29T03:18:38.938Z,20.68
2018-05-29T03:19:38.711Z,20.67
2018-05-29T03:20:38.885Z,20.67
2018-05-29T03:21:38.867Z,20.68
2018-05-29T03:22:38.797Z,20.67
2018-05-29T03:23:38.738Z,20.66
2018-05-29T03:24:38.962Z,20.71
2018-05-29T03:25:38.813Z,20.67
2018-05-29T03:26:38.891Z,20.66
2018-05-29T03:27:38.852Z,20.68
2018-05-29T03:28:38.835Z,20.66
2018-05-29T03:29:38.667Z,20.66
2018-05-29T03:30:38.566Z,20.68
2018-05-29T03:31:38.574Z,20.66
2018-05-29T03:32:38.445Z,20.67
2018-05-29T03:33:38.600Z,20.67
2018-05-29T03:34:38.424Z,20.64
2018-05-29T03:35:38.525Z,20.67
2018-05-29T03:36:38.559Z,20.66
2018-05-29T03:37:38.719Z,20.67
2018-05-29T03:38:38.419Z,20.68
2018-05-29T03:39:38.572Z,20.66
2018-05-29T03:40:38.558Z,20.66
2018-05-29T03:41:38.481Z,20.66
2018-05-29T03:42:38.568Z,20.64
2018-05-29T03:43:38.556Z,20.67
2018-05-29T03:44:38.429Z,20.66
2018-05-29T03:45:38.490Z,20.68
2018-05-29T03:46:38.712Z,20.66
2018-05-29T03:47:38.625Z,20.67
2018-05-29T03:48:38.511Z,20.68
2018-05-29T03:49:38.448Z,20.66
2018-05-29T03:50:38.465Z,20.67
2018-05-29T03:51:38.571Z,20.68
2018-05-29T03:52:38.646Z,20.64
2018-05-29T03:53:38.639Z,20.68
2018-05-29T03:54:38.322Z,20.66
2018-05-29T03:55:38.328Z,20.7
2018-05-29T03:56:38.656Z,20.67
2018-05-29T03:57:38.677Z,20.67
2018-05-29T03:58:38.502Z,20.66
2018-05-29T03:59:38.595Z,20.68
2018-05-29T04:00:38.468Z,20.66
2018-05-29T04:01:38.348Z,20.67
2018-05-29T04:02:38.663Z,20.66
2018-05-29T04:03:38.625Z,20.64
2018-05-29T04:04:38.499Z,20.66
2018-05-29T04:05:38.660Z,20.67
2018-05-29T04:06:38.503Z,20.66
2018-05-29T04:07:38.546Z,20.67
2018-05-29T04:08:38.491Z,20.67
2018-05-29T04:09:38.671Z,20.67
2018-05-29T04:10:38.488Z,20.67
2018-05-29T04:11:38.508Z,20.64
2018-05-29T04:12:38.511Z,20.66
2018-05-29T04:13:38.566Z,20.67
2018-05-29T04:14:38.546Z,20.67
2018-05-29T04:15:38.802Z,20.68
2018-05-29T04:16:38.465Z,20.67
2018-05-29T04:17:38.519Z,20.67
2018-05-29T04:18:38.499Z,20.67
2018-05-29T04:19:38.643Z,20.67
2018-05-29T04:20:38.459Z,20.67
2018-05-29T04:21:38.611Z,20.66
2018-05-29T04:22:38.675Z,20.68
2018-05-29T04:23:38.492Z,20.66
2018-05-29T04:24:38.635Z,20.67
2018-05-29T04:25:38.639Z,20.64
2018-05-29T04:26:38.405Z,20.67
2018-05-29T04:27:38.396Z,20.66
2018-05-29T04:28:38.508Z,20.7
2018-05-29T04:29:38.543Z,20.67
2018-05-29T04:30:38.398Z,20.66
2018-05-29T04:31:38.339Z,20.61
2018-05-29T04:32:38.507Z,20.66
2018-05-29T04:33:38.501Z,20.66
2018-05-29T04:34:38.319Z,20.66
2018-05-29T04:35:38.459Z,20.66
2018-05-29T04:36:38.443Z,20.64
2018-05-29T04:37:38.611Z,20.67
2018-05-29T04:38:38.599Z,20.66
2018-05-29T04:39:38.570Z,20.67
2018-05-29T04:40:38.617Z,20.67
2018-05-29T04:41:38.584Z,20.66
2018-05-29T04:42:38.462Z,20.66
2018-05-29T04:43:38.774Z,20.63
2018-05-29T04:44:38.518Z,20.66
2018-05-29T04:45:38.543Z,20.67
2018-05-29T04:46:38.360Z,20.64
2018-05-29T04:47:38.364Z,20.64
2018-05-29T04:48:38.426Z,20.66
2018-05-29T04:49:38.738Z,20.64
2018-05-29T04:50:38.555Z,20.66
2018-05-29T04:51:38.606Z,20.66
2018-05-29T04:52:38.381Z,20.67
2018-05-29T04:53:38.542Z,20.67
2018-05-29T04:54:38.594Z,20.66
2018-05-29T04:55:38.571Z,20.66
2018-05-29T04:56:39.168Z,20.64
2018-05-29T04:57:38.575Z,20.66
2018-05-29T04:58:38.466Z,20.66
2018-05-29T04:59:38.585Z,20.67
2018-05-29T05:00:38.553Z,20.66
2018-05-29T05:01:38.357Z,20.63
2018-05-29T05:02:39.031Z,20.67
2018-05-29T05:03:38.474Z,20.66
2018-05-29T05:04:38.320Z,20.66
2018-05-29T05:05:38.490Z,20.66
2018-05-29T05:06:38.333Z,20.67
2018-05-29T05:07:38.497Z,20.66
2018-05-29T05:08:38.442Z,20.67
2018-05-29T05:09:38.466Z,20.67
2018-05-29T05:10:38.469Z,20.66
2018-05-29T05:11:38.375Z,20.64
2018-05-29T05:12:38.495Z,20.66
2018-05-29T05:13:38.348Z,20.66
2018-05-29T05:14:38.528Z,20.64
2018-05-29T05:15:38.686Z,20.67
2018-05-29T05:16:38.541Z,20.66
2018-05-29T05:17:38.589Z,20.66
2018-05-29T05:18:38.823Z,20.67
2018-05-29T05:19:38.372Z,20.63
2018-05-29T05:20:38.516Z,20.66
2018-05-29T05:21:38.550Z,20.66
2018-05-29T05:22:38.762Z,20.66
2018-05-29T05:23:38.955Z,20.68
2018-05-29T05:24:38.543Z,20.66
2018-05-29T05:25:38.403Z,20.66
2018-05-29T05:26:38.449Z,20.66
2018-05-29T05:27:38.460Z,20.67
2018-05-29T05:28:38.434Z,20.66
2018-05-29T05:29:38.499Z,20.66
2018-05-29T05:30:38.438Z,20.67
2018-05-29T05:31:38.440Z,20.67
2018-05-29T05:32:38.504Z,20.66
2018-05-29T05:33:38.336Z,20.67
2018-05-29T05:34:38.664Z,20.66
2018-05-29T05:35:38.343Z,20.68
2018-05-29T05:36:38.437Z,20.67
2018-05-29T05:37:38.600Z,20.67
2018-05-29T05:38:38.615Z,20.66
2018-05-29T05:39:38.447Z,20.64
2018-05-29T05:40:38.521Z,20.66
2018-05-29T05:41:38.440Z,20.64
2018-05-29T05:42:38.707Z,20.66
2018-05-29T05:43:38.409Z,20.66
2018-05-29T05:44:38.569Z,20.66
2018-05-29T05:45:38.472Z,20.64
2018-05-29T05:46:38.399Z,20.66
2018-05-29T05:47:38.424Z,20.66
2018-05-29T05:48:38.478Z,20.64
2018-05-29T05:49:38.509Z,20.66
2018-05-29T05:50:38.428Z,20.66
2018-05-29T05:51:38.491Z,20.66
2018-05-29T05:52:38.590Z,20.66
2018-05-29T05:53:38.429Z,20.67
2018-05-29T05:54:38.566Z,20.64
2018-05-29T05:55:38.549Z,20.64
2018-05-29T05:56:38.425Z,20.66
2018-05-29T05:57:38.439Z,20.66
2018-05-29T05:58:38.568Z,20.66
2018-05-29T05:59:38.431Z,20.66
2018-05-29T06:00:38.459Z,20.66
2018-05-29T06:01:38.508Z,20.66
2018-05-29T06:02:38.568Z,20.66
2018-05-29T06:03:38.573Z,20.61
2018-05-29T06:04:38.357Z,20.66
2018-05-29T06:05:38.563Z,20.64
2018-05-29T06:06:38.512Z,20.66
2018-05-29T06:07:38.408Z,20.64
2018-05-29T06:08:38.413Z,20.66
2018-05-29T06:09:38.467Z,20.64
2018-05-29T06:10:38.611Z,20.66
2018-05-29T06:11:38.553Z,20.66
2018-05-29T06:12:38.570Z,20.66
2018-05-29T06:13:38.681Z,20.64
2018-05-29T06:14:38.474Z,20.64
2018-05-29T06:15:38.376Z,20.66
2018-05-29T06:16:38.494Z,20.64
2018-05-29T06:17:38.689Z,20.66
2018-05-29T06:18:38.573Z,20.64
2018-05-29T06:19:38.530Z,20.66
2018-05-29T06:20:38.356Z,20.64
2018-05-29T06:21:38.488Z,20.67
2018-05-29T06:22:38.331Z,20.66
2018-05-29T06:23:38.513Z,20.66
2018-05-29T06:24:38.360Z,20.68
2018-05-29T06:25:38.491Z,20.66
2018-05-29T06:26:38.375Z,20.67
2018-05-29T06:27:38.622Z,20.7
2018-05-29T06:28:38.452Z,20.7
2018-05-29T06:29:38.501Z,20.74
2018-05-29T06:30:38.445Z,20.74
2018-05-29T06:31:38.311Z,20.71
2018-05-29T06:32:38.456Z,20.71
2018-05-29T06:33:38.478Z,20.7
2018-05-29T06:34:38.505Z,20.68
2018-05-29T06:35:38.537Z,20.7
2018-05-29T06:36:38.495Z,20.71
2018-05-29T06:37:38.414Z,20.72
2018-05-29T06:38:38.601Z,20.71
2018-05-29T06:39:38.387Z,20.71
2018-05-29T06:40:38.341Z,20.71
2018-05-29T06:41:38.375Z,20.7
2018-05-29T06:42:38.569Z,20.7
2018-05-29T06:43:38.336Z,20.72
2018-05-29T06:44:38.527Z,20.68
2018-05-29T06:45:38.595Z,20.68
2018-05-29T06:46:38.539Z,20.67
2018-05-29T06:47:38.451Z,20.71
2018-05-29T06:48:38.584Z,20.68
2018-05-29T06:49:38.334Z,20.71
2018-05-29T06:50:38.627Z,20.7
2018-05-29T06:51:38.392Z,20.7
2018-05-29T06:52:38.824Z,20.68
2018-05-29T06:53:38.717Z,20.67
2018-05-29T06:54:38.522Z,20.67
2018-05-29T06:55:38.384Z,20.7
2018-05-29T06:56:38.407Z,20.7
2018-05-29T06:57:38.603Z,20.67
2018-05-29T06:58:38.475Z,20.68
2018-05-29T06:59:38.471Z,20.71
2018-05-29T07:00:38.566Z,20.67
2018-05-29T07:01:38.406Z,20.68
2018-05-29T07:02:38.393Z,20.66
2018-05-29T07:03:38.519Z,20.68
2018-05-29T07:04:38.392Z,20.68
2018-05-29T07:05:38.489Z,20.71
2018-05-29T07:06:38.546Z,20.68
2018-05-29T07:07:38.355Z,20.66
2018-05-29T07:08:38.412Z,20.7
2018-05-29T07:09:38.432Z,20.67
2018-05-29T07:10:38.540Z,20.67
2018-05-29T07:11:38.382Z,20.68
2018-05-29T07:12:38.375Z,20.67
2018-05-29T07:13:38.574Z,20.67
2018-05-29T07:14:38.891Z,20.66
2018-05-29T07:15:38.466Z,20.66
2018-05-29T07:16:38.354Z,20.67
2018-05-29T07:17:38.340Z,20.67
2018-05-29T07:18:38.401Z,20.67
2018-05-29T07:19:38.533Z,20.68
2018-05-29T07:20:38.446Z,20.67
2018-05-29T07:21:38.523Z,20.68
2018-05-29T07:22:38.537Z,20.64
2018-05-29T07:23:38.654Z,20.66
2018-05-29T07:24:38.788Z,20.67
2018-05-29T07:25:38.433Z,20.67
2018-05-29T07:26:38.755Z,20.67
2018-05-29T07:27:38.412Z,20.66
2018-05-29T07:28:38.498Z,20.64
2018-05-29T07:29:38.491Z,20.67
2018-05-29T07:30:38.572Z,20.68
2018-05-29T07:31:38.319Z,20.67
2018-05-29T07:32:38.383Z,20.68
2018-05-29T07:33:38.369Z,20.67
2018-05-29T07:34:38.429Z,20.67
2018-05-29T07:35:38.489Z,20.68
2018-05-29T07:36:38.339Z,20.66
2018-05-29T07:37:38.329Z,20.67
2018-05-29T07:38:38.363Z,20.67
2018-05-29T07:40:02.834Z,20.7
2018-05-29T07:40:38.464Z,20.68
2018-05-29T07:41:38.736Z,20.68
2018-05-29T07:42:38.532Z,20.67
2018-05-29T07:43:38.636Z,20.67
2018-05-29T07:44:38.372Z,20.66
2018-05-29T07:45:38.501Z,20.7
2018-05-29T07:46:38.620Z,20.68
2018-05-29T07:47:38.325Z,20.67
2018-05-29T07:48:38.494Z,20.67
2018-05-29T07:49:38.382Z,20.68
2018-05-29T07:50:38.666Z,20.67
2018-05-29T07:51:38.394Z,20.68
2018-05-29T07:52:38.413Z,20.7
2018-05-29T07:53:38.543Z,20.68
2018-05-29T07:54:38.387Z,20.68
2018-05-29T07:55:38.440Z,20.67
2018-05-29T07:56:38.562Z,20.68
2018-05-29T07:57:38.296Z,20.66
2018-05-29T07:58:38.364Z,20.7
2018-05-29T07:59:38.403Z,20.67
2018-05-29T08:00:38.477Z,20.68
2018-05-29T08:01:38.513Z,20.66
2018-05-29T08:02:38.607Z,20.66
2018-05-29T08:03:38.472Z,20.66
2018-05-29T08:04:38.557Z,20.7
2018-05-29T08:05:38.396Z,20.67
2018-05-29T08:06:38.528Z,20.68
2018-05-29T08:07:38.446Z,20.68
2018-05-29T08:08:38.431Z,20.7
2018-05-29T08:09:38.402Z,20.67
2018-05-29T08:10:39.117Z,20.68
2018-05-29T08:11:38.435Z,20.68
2018-05-29T08:12:38.453Z,20.66
2018-05-29T08:13:38.501Z,20.68
2018-05-29T08:14:38.489Z,20.67
2018-05-29T08:15:38.452Z,20.66
2018-05-29T08:16:38.487Z,20.67
2018-05-29T08:17:38.692Z,20.68
2018-05-29T08:18:38.988Z,20.68
2018-05-29T08:19:38.425Z,20.68
2018-05-29T08:20:38.474Z,20.67
2018-05-29T08:21:38.385Z,20.68
2018-05-29T08:22:38.423Z,20.68
2018-05-29T08:23:38.356Z,20.68
2018-05-29T08:24:38.774Z,20.68
2018-05-29T08:25:38.292Z,20.68
2018-05-29T08:26:38.472Z,20.67
2018-05-29T08:27:38.445Z,20.66
2018-05-29T08:28:38.440Z,20.68
2018-05-29T08:29:38.381Z,20.67
2018-05-29T08:30:38.338Z,20.66
2018-05-29T08:31:38.450Z,20.67
2018-05-29T08:32:38.359Z,20.67
2018-05-29T08:33:38.393Z,20.67
2018-05-29T08:34:38.431Z,20.67
2018-05-29T08:35:38.471Z,20.67
2018-05-29T08:36:38.466Z,20.67
2018-05-29T08:37:38.602Z,20.67
2018-05-29T08:38:38.331Z,20.64
2018-05-29T08:39:38.945Z,20.68
2018-05-29T08:40:38.347Z,20.66
2018-05-29T08:41:38.459Z,20.68
2018-05-29T08:42:38.482Z,20.67
2018-05-29T08:43:38.444Z,20.66
2018-05-29T08:44:38.416Z,20.68
2018-05-29T08:45:38.525Z,20.67
2018-05-29T08:46:38.543Z,20.66
2018-05-29T08:47:38.402Z,20.64
2018-05-29T08:48:38.485Z,20.66
2018-05-29T08:49:38.535Z,20.67
2018-05-29T08:50:38.399Z,20.66
2018-05-29T08:51:38.555Z,20.67
2018-05-29T08:52:38.409Z,20.67
2018-05-29T08:53:38.435Z,20.64
2018-05-29T08:54:38.496Z,20.67
2018-05-29T08:55:38.560Z,20.66
2018-05-29T08:56:38.454Z,20.67
2018-05-29T08:57:38.283Z,20.67
2018-05-29T08:58:38.376Z,20.67
2018-05-29T08:59:38.398Z,20.66
2018-05-29T09:00:38.432Z,20.67
2018-05-29T09:01:38.516Z,20.67
2018-05-29T09:02:38.314Z,20.66
2018-05-29T09:03:38.517Z,20.64
2018-05-29T09:04:38.443Z,20.67
2018-05-29T09:05:38.375Z,20.64
2018-05-29T09:06:38.472Z,20.66
2018-05-29T09:07:38.619Z,20.67
2018-05-29T09:08:38.338Z,20.64
2018-05-29T09:09:38.551Z,20.66
2018-05-29T09:10:38.296Z,20.64
2018-05-29T09:11:38.255Z,20.64
2018-05-29T09:12:38.401Z,20.67
2018-05-29T09:13:38.355Z,20.67
2018-05-29T09:14:38.360Z,20.64
2018-05-29T09:15:38.574Z,20.66
2018-05-29T09:16:38.449Z,20.67
2018-05-29T09:17:38.431Z,20.64
2018-05-29T09:18:38.402Z,20.64
2018-05-29T09:19:38.319Z,20.63
2018-05-29T09:20:38.450Z,20.64
2018-05-29T09:21:38.474Z,20.66
2018-05-29T09:22:38.474Z,20.66
2018-05-29T09:23:38.381Z,20.66
2018-05-29T09:24:38.444Z,20.66
2018-05-29T09:25:38.515Z,20.67
2018-05-29T09:26:38.356Z,20.68
2018-05-29T09:27:38.333Z,20.67
2018-05-29T09:28:38.357Z,20.68
2018-05-29T09:29:38.986Z,20.67
2018-05-29T09:30:38.519Z,20.67
2018-05-29T09:31:38.491Z,20.64
2018-05-29T09:32:38.348Z,20.66
2018-05-29T09:33:38.346Z,20.66
2018-05-29T09:34:38.504Z,20.67
2018-05-29T09:35:38.373Z,20.66
2018-05-29T09:36:38.501Z,20.64
2018-05-29T09:37:38.327Z,20.67
2018-05-29T09:38:38.631Z,20.67
2018-05-29T09:39:38.490Z,20.66
2018-05-29T09:40:38.385Z,20.68
2018-05-29T09:41:38.255Z,20.68
2018-05-29T09:42:38.354Z,20.66
2018-05-29T09:43:38.329Z,20.68
2018-05-29T09:44:38.783Z,20.67
2018-05-29T09:45:38.434Z,20.67
2018-05-29T09:46:38.348Z,20.66
2018-05-29T09:47:38.399Z,20.67
2018-05-29T09:48:38.633Z,20.66
2018-05-29T09:49:38.445Z,20.66
2018-05-29T09:50:38.288Z,20.67
2018-05-29T09:51:38.498Z,20.66
2018-05-29T09:52:38.487Z,20.66
2018-05-29T09:53:38.750Z,20.68
2018-05-29T09:54:38.418Z,20.67
2018-05-29T09:55:38.644Z,20.67
2018-05-29T09:56:38.679Z,20.66
2018-05-29T09:57:38.446Z,20.7
2018-05-29T09:58:38.408Z,20.66
2018-05-29T09:59:38.335Z,20.64
2018-05-29T10:00:38.609Z,20.67
2018-05-29T10:01:38.522Z,20.66
2018-05-29T10:02:38.347Z,20.68
2018-05-29T10:03:38.501Z,20.67
2018-05-29T10:04:38.380Z,20.67
2018-05-29T10:05:38.469Z,20.63
2018-05-29T10:06:38.481Z,20.67
2018-05-29T10:07:38.357Z,20.63
2018-05-29T10:08:38.355Z,20.68
2018-05-29T10:09:38.416Z,20.67
2018-05-29T10:10:38.448Z,20.66
2018-05-29T10:11:38.547Z,20.66
2018-05-29T10:12:38.333Z,20.66
2018-05-29T10:13:38.473Z,20.67
2018-05-29T10:14:38.342Z,20.67
2018-05-29T10:15:38.277Z,20.67
2018-05-29T10:16:38.525Z,20.66
2018-05-29T10:17:38.432Z,20.66
2018-05-29T10:18:38.326Z,20.66
2018-05-29T10:19:38.417Z,20.66
2018-05-29T10:20:38.448Z,20.66
2018-05-29T10:21:38.564Z,20.67
2018-05-29T10:22:38.359Z,20.63
2018-05-29T10:23:38.497Z,20.64
2018-05-29T10:24:38.749Z,20.64
2018-05-29T10:25:38.399Z,20.64
2018-05-29T10:26:38.369Z,20.67
2018-05-29T10:27:38.391Z,20.64
2018-05-29T10:28:38.406Z,20.63
2018-05-29T10:29:38.323Z,20.63
2018-05-29T10:30:38.326Z,20.66
2018-05-29T10:31:38.601Z,20.64
2018-05-29T10:32:38.348Z,20.66
2018-05-29T10:33:38.339Z,20.64
2018-05-29T10:34:38.481Z,20.66
2018-05-29T10:35:38.371Z,20.66
2018-05-29T10:36:38.325Z,20.63
2018-05-29T10:37:38.325Z,20.64
2018-05-29T10:38:38.358Z,20.61
2018-05-29T10:39:38.425Z,20.63
2018-05-29T10:40:38.315Z,20.66
2018-05-29T10:41:38.355Z,20.66
2018-05-29T10:42:38.484Z,20.64
2018-05-29T10:43:38.478Z,20.66
2018-05-29T10:44:38.256Z,20.64
2018-05-29T10:45:38.459Z,20.66
2018-05-29T10:46:38.478Z,20.64
2018-05-29T10:47:38.407Z,20.61
2018-05-29T10:48:38.438Z,20.64
2018-05-29T10:49:38.380Z,20.61
2018-05-29T10:50:38.354Z,20.63
2018-05-29T10:51:38.489Z,20.64
2018-05-29T10:52:38.277Z,20.63
2018-05-29T10:53:38.314Z,20.63
2018-05-29T10:54:38.482Z,20.61
2018-05-29T10:55:38.516Z,20.64
2018-05-29T10:56:38.371Z,20.64
2018-05-29T10:57:38.576Z,20.66
2018-05-29T10:58:38.183Z,20.64
2018-05-29T10:59:38.327Z,20.64
2018-05-29T11:00:38.384Z,20.63
2018-05-29T11:01:38.357Z,20.66
2018-05-29T11:02:38.384Z,20.64
2018-05-29T11:03:38.396Z,20.66
2018-05-29T11:04:38.333Z,20.64
2018-05-29T11:05:38.460Z,20.63
2018-05-29T11:06:38.445Z,20.64
2018-05-29T11:07:38.423Z,20.66
2018-05-29T11:08:38.426Z,20.63
2018-05-29T11:09:38.461Z,20.63
2018-05-29T11:10:38.336Z,20.64
2018-05-29T11:11:38.307Z,20.61
2018-05-29T11:12:38.272Z,20.61
2018-05-29T11:13:38.455Z,20.64
2018-05-29T11:14:38.477Z,20.64
2018-05-29T11:15:38.413Z,20.61
2018-05-29T11:16:38.493Z,20.66
2018-05-29T11:17:38.383Z,20.64
2018-05-29T11:18:38.362Z,20.64
2018-05-29T11:19:38.502Z,20.66
2018-05-29T11:20:38.309Z,20.63
2018-05-29T11:21:38.334Z,20.64
2018-05-29T11:22:38.351Z,20.64
2018-05-29T11:23:38.561Z,20.64
2018-05-29T11:24:38.503Z,20.63
2018-05-29T11:25:38.583Z,20.63
2018-05-29T11:26:38.447Z,20.63
2018-05-29T11:27:38.295Z,20.66
2018-05-29T11:28:38.358Z,20.63
2018-05-29T11:29:38.387Z,20.67
2018-05-29T11:30:38.413Z,20.64
2018-05-29T11:31:38.406Z,20.63
2018-05-29T11:32:38.375Z,20.66
2018-05-29T11:33:38.464Z,20.64
2018-05-29T11:34:38.285Z,20.66
2018-05-29T11:35:38.367Z,20.66
2018-05-29T11:36:38.516Z,20.66
2018-05-29T11:37:38.226Z,20.67
2018-05-29T11:38:38.386Z,20.66
2018-05-29T11:39:38.388Z,20.64
2018-05-29T11:40:38.718Z,20.66
2018-05-29T11:41:38.273Z,20.67
2018-05-29T11:42:38.457Z,20.66
2018-05-29T11:43:38.295Z,20.64
2018-05-29T11:44:38.374Z,20.67
2018-05-29T11:45:38.451Z,20.63
2018-05-29T11:46:38.359Z,20.64
2018-05-29T11:47:38.297Z,20.66
2018-05-29T11:48:39.032Z,20.67
2018-05-29T11:49:38.331Z,20.64
2018-05-29T11:50:38.466Z,20.66
2018-05-29T11:51:38.262Z,20.61
2018-05-29T11:52:38.220Z,20.66
2018-05-29T11:53:38.404Z,20.66
2018-05-29T11:54:38.476Z,20.64
2018-05-29T11:55:38.360Z,20.64
2018-05-29T11:56:38.265Z,20.63
2018-05-29T11:57:38.437Z,20.64
2018-05-29T11:58:38.449Z,20.64
2018-05-29T11:59:38.302Z,20.64
2018-05-29T12:00:38.903Z,20.63
2018-05-29T12:01:38.340Z,20.66
2018-05-29T12:02:38.321Z,20.64
2018-05-29T12:03:38.312Z,20.66
2018-05-29T12:04:38.408Z,20.64
2018-05-29T12:05:38.493Z,20.67
2018-05-29T12:06:38.476Z,20.64
2018-05-29T12:07:38.940Z,20.66
2018-05-29T12:08:38.340Z,20.66
2018-05-29T12:09:38.439Z,20.66
2018-05-29T12:10:38.470Z,20.66
2018-05-29T12:11:38.393Z,20.66
2018-05-29T12:12:38.456Z,20.64
2018-05-29T12:13:38.604Z,20.66
2018-05-29T12:14:38.403Z,20.67
2018-05-29T12:15:38.318Z,20.64
2018-05-29T12:16:38.461Z,20.67
2018-05-29T12:17:38.309Z,20.66
2018-05-29T12:18:38.273Z,20.67
2018-05-29T12:19:38.518Z,20.66
2018-05-29T12:20:38.342Z,20.66
2018-05-29T12:21:38.563Z,20.66
2018-05-29T12:22:38.274Z,20.64
2018-05-29T12:23:38.217Z,20.66
2018-05-29T12:24:38.488Z,20.67
2018-05-29T12:25:38.271Z,20.64
2018-05-29T12:26:38.394Z,20.66
2018-05-29T12:27:38.320Z,20.64
2018-05-29T12:28:38.194Z,20.66
2018-05-29T12:29:38.364Z,20.67
2018-05-29T12:30:38.440Z,20.64
2018-05-29T12:31:38.438Z,20.64
2018-05-29T12:32:38.518Z,20.66
2018-05-29T12:33:38.478Z,20.66
2018-05-29T12:34:38.505Z,20.67
2018-05-29T12:35:38.378Z,20.67
2018-05-29T12:36:38.628Z,20.67
2018-05-29T12:37:38.468Z,20.67
2018-05-29T12:38:38.400Z,20.66
2018-05-29T12:39:38.362Z,20.67
2018-05-29T12:40:38.317Z,20.64
2018-05-29T12:41:38.404Z,20.66
2018-05-29T12:42:38.425Z,20.67
2018-05-29T12:43:38.362Z,20.64
2018-05-29T12:44:38.223Z,20.66
2018-05-29T12:45:38.461Z,20.66
2018-05-29T12:46:38.345Z,20.66
2018-05-29T12:47:38.465Z,20.66
2018-05-29T12:48:38.391Z,20.67
2018-05-29T12:49:38.390Z,20.64
2018-05-29T12:50:38.277Z,20.66
2018-05-29T12:51:38.284Z,20.67
2018-05-29T12:52:38.482Z,20.66
2018-05-29T12:53:38.450Z,20.66
2018-05-29T12:54:38.331Z,20.64